sensor_id;sensor_type;location;lat;lon;timestamp;pressure;altitude;pressure_sealevel;temperature;humidity
77092;BME280;66032;48.252;11.638;2023-04-24T00:00:04;95124.06;;;10.95;88.66
77092;BME280;66032;48.252;11.638;2023-04-24T00:02:42;95123.03;;;10.96;88.95
77092;BME280;66032;48.252;11.638;2023-04-24T00:05:15;95119.56;;;10.96;89.07
77092;BME280;66032;48.252;11.638;2023-04-24T00:07:43;95113.44;;;10.95;88.79
77092;BME280;66032;48.252;11.638;2023-04-24T00:10:12;95109.50;;;10.91;88.89
77092;BME280;66032;48.252;11.638;2023-04-24T00:12:39;95112.50;;;10.88;89.01
77092;BME280;66032;48.252;11.638;2023-04-24T00:15:07;95105.38;;;10.89;88.97
77092;BME280;66032;48.252;11.638;2023-04-24T00:17:35;95100.25;;;10.87;89.05
77092;BME280;66032;48.252;11.638;2023-04-24T00:20:03;95100.63;;;10.84;88.95
77092;BME280;66032;48.252;11.638;2023-04-24T00:22:31;95104.91;;;10.85;89.16
77092;BME280;66032;48.252;11.638;2023-04-24T00:24:59;95100.78;;;10.83;88.73
77092;BME280;66032;48.252;11.638;2023-04-24T00:27:26;95094.84;;;10.81;88.70
77092;BME280;66032;48.252;11.638;2023-04-24T00:29:53;95090.53;;;10.80;88.67
77092;BME280;66032;48.252;11.638;2023-04-24T00:32:21;95093.19;;;10.80;88.95
77092;BME280;66032;48.252;11.638;2023-04-24T00:34:48;95097.03;;;10.77;88.99
77092;BME280;66032;48.252;11.638;2023-04-24T00:37:15;95095.38;;;10.76;88.77
77092;BME280;66032;48.252;11.638;2023-04-24T00:39:43;95105.34;;;10.74;88.71
77092;BME280;66032;48.252;11.638;2023-04-24T00:42:11;95099.38;;;10.72;88.82
77092;BME280;66032;48.252;11.638;2023-04-24T00:44:39;95100.41;;;10.71;88.94
77092;BME280;66032;48.252;11.638;2023-04-24T00:47:07;95104.88;;;10.71;88.65
77092;BME280;66032;48.252;11.638;2023-04-24T00:49:34;95105.88;;;10.70;88.44
77092;BME280;66032;48.252;11.638;2023-04-24T00:52:02;95105.41;;;10.66;88.46
77092;BME280;66032;48.252;11.638;2023-04-24T00:54:29;95102.75;;;10.66;88.31
77092;BME280;66032;48.252;11.638;2023-04-24T00:56:56;95106.22;;;10.67;88.50
77092;BME280;66032;48.252;11.638;2023-04-24T00:59:24;95097.63;;;10.64;88.20
77092;BME280;66032;48.252;11.638;2023-04-24T01:01:51;95094.34;;;10.62;88.02
77092;BME280;66032;48.252;11.638;2023-04-24T01:04:19;95094.34;;;10.62;87.86
77092;BME280;66032;48.252;11.638;2023-04-24T01:06:48;95097.81;;;10.63;88.00
77092;BME280;66032;48.252;11.638;2023-04-24T01:09:22;95081.28;;;10.61;87.56
77092;BME280;66032;48.252;11.638;2023-04-24T01:11:50;95091.88;;;10.61;87.70
77092;BME280;66032;48.252;11.638;2023-04-24T01:14:18;95097.53;;;10.58;87.05
77092;BME280;66032;48.252;11.638;2023-04-24T01:16:48;95090.41;;;10.58;87.21
77092;BME280;66032;48.252;11.638;2023-04-24T01:19:16;95092.41;;;10.56;87.09
77092;BME280;66032;48.252;11.638;2023-04-24T01:21:47;95087.47;;;10.53;87.04
77092;BME280;66032;48.252;11.638;2023-04-24T01:24:18;95085.81;;;10.52;86.93
77092;BME280;66032;48.252;11.638;2023-04-24T01:26:46;95087.81;;;10.50;87.01
77092;BME280;66032;48.252;11.638;2023-04-24T01:29:14;95078.22;;;10.49;87.02
77092;BME280;66032;48.252;11.638;2023-04-24T01:31:42;95089.16;;;10.46;86.43
77092;BME280;66032;48.252;11.638;2023-04-24T01:34:10;95087.72;;;10.44;86.34
77092;BME280;66032;48.252;11.638;2023-04-24T01:36:38;95077.28;;;10.42;86.45
77092;BME280;66032;48.252;11.638;2023-04-24T01:39:05;95073.16;;;10.40;86.33
77092;BME280;66032;48.252;11.638;2023-04-24T01:41:33;95069.34;;;10.42;86.30
77092;BME280;66032;48.252;11.638;2023-04-24T01:44:01;95074.63;;;10.42;85.95
77092;BME280;66032;48.252;11.638;2023-04-24T01:46:29;95072.72;;;10.36;86.02
77092;BME280;66032;48.252;11.638;2023-04-24T01:49:00;95074.72;;;10.34;85.58
77092;BME280;66032;48.252;11.638;2023-04-24T01:51:27;95079.66;;;10.37;85.70
77092;BME280;66032;48.252;11.638;2023-04-24T01:53:56;95080.66;;;10.36;85.41
77092;BME280;66032;48.252;11.638;2023-04-24T01:56:24;95076.53;;;10.34;85.37
77092;BME280;66032;48.252;11.638;2023-04-24T01:58:53;95083.81;;;10.32;85.41
77092;BME280;66032;48.252;11.638;2023-04-24T02:01:25;95079.34;;;10.32;85.77
77092;BME280;66032;48.252;11.638;2023-04-24T02:03:53;95077.25;;;10.27;85.25
77092;BME280;66032;48.252;11.638;2023-04-24T02:06:20;95077.41;;;10.26;85.54
77092;BME280;66032;48.252;11.638;2023-04-24T02:08:48;95079.59;;;10.22;85.72
77092;BME280;66032;48.252;11.638;2023-04-24T02:11:15;95077.31;;;10.19;86.01
77092;BME280;66032;48.252;11.638;2023-04-24T02:13:42;95066.06;;;10.17;85.87
77092;BME280;66032;48.252;11.638;2023-04-24T02:16:10;95070.84;;;10.14;85.90
77092;BME280;66032;48.252;11.638;2023-04-24T02:18:37;95076.13;;;10.14;85.99
77092;BME280;66032;48.252;11.638;2023-04-24T02:21:05;95071.84;;;10.13;85.78
77092;BME280;66032;48.252;11.638;2023-04-24T02:23:32;95063.28;;;10.11;85.44
77092;BME280;66032;48.252;11.638;2023-04-24T02:25:59;95068.72;;;10.09;85.69
77092;BME280;66032;48.252;11.638;2023-04-24T02:28:27;95066.91;;;10.10;85.46
77092;BME280;66032;48.252;11.638;2023-04-24T02:30:54;95067.75;;;10.10;85.56
77092;BME280;66032;48.252;11.638;2023-04-24T02:33:21;95058.97;;;10.10;85.35
77092;BME280;66032;48.252;11.638;2023-04-24T02:35:49;95062.44;;;10.10;85.23
77092;BME280;66032;48.252;11.638;2023-04-24T02:38:16;95069.06;;;10.06;84.93
77092;BME280;66032;48.252;11.638;2023-04-24T02:40:44;95067.91;;;10.09;85.16
77092;BME280;66032;48.252;11.638;2023-04-24T02:43:11;95061.44;;;10.11;84.87
77092;BME280;66032;48.252;11.638;2023-04-24T02:45:38;95060.63;;;10.11;84.87
77092;BME280;66032;48.252;11.638;2023-04-24T02:48:06;95062.44;;;10.10;84.63
77092;BME280;66032;48.252;11.638;2023-04-24T02:50:33;95061.44;;;10.11;84.34
77092;BME280;66032;48.252;11.638;2023-04-24T02:53:01;95066.38;;;10.14;84.43
77092;BME280;66032;48.252;11.638;2023-04-24T02:55:28;95066.06;;;10.17;84.74
77092;BME280;66032;48.252;11.638;2023-04-24T02:57:56;95067.03;;;10.16;84.36
77092;BME280;66032;48.252;11.638;2023-04-24T03:00:23;95061.72;;;10.16;84.61
77092;BME280;66032;48.252;11.638;2023-04-24T03:02:50;95066.06;;;10.17;85.39
77092;BME280;66032;48.252;11.638;2023-04-24T03:05:18;95072.31;;;10.16;85.22
77092;BME280;66032;48.252;11.638;2023-04-24T03:07:45;95061.63;;;10.10;85.25
77092;BME280;66032;48.252;11.638;2023-04-24T03:10:13;95061.44;;;10.11;85.02
77092;BME280;66032;48.252;11.638;2023-04-24T03:12:40;95061.78;;;10.08;85.51
77092;BME280;66032;48.252;11.638;2023-04-24T03:15:08;95059.97;;;10.09;85.48
77092;BME280;66032;48.252;11.638;2023-04-24T03:17:36;95060.47;;;10.04;85.81
77092;BME280;66032;48.252;11.638;2023-04-24T03:20:04;95060.19;;;9.99;86.27
77092;BME280;66032;48.252;11.638;2023-04-24T03:22:32;95062.38;;;9.96;86.24
77092;BME280;66032;48.252;11.638;2023-04-24T03:25:03;95067.03;;;9.94;86.83
77092;BME280;66032;48.252;11.638;2023-04-24T03:27:30;95059.25;;;9.92;86.59
77092;BME280;66032;48.252;11.638;2023-04-24T03:30:06;95069.50;;;9.95;87.11
77092;BME280;66032;48.252;11.638;2023-04-24T03:32:46;95067.38;;;9.90;86.77
77092;BME280;66032;48.252;11.638;2023-04-24T03:35:19;95070.84;;;9.91;87.03
77092;BME280;66032;48.252;11.638;2023-04-24T03:37:48;95081.44;;;9.91;86.98
77092;BME280;66032;48.252;11.638;2023-04-24T03:40:34;95072.19;;;9.87;87.28
77092;BME280;66032;48.252;11.638;2023-04-24T03:43:10;95078.66;;;9.84;87.38
77092;BME280;66032;48.252;11.638;2023-04-24T03:45:37;95080.00;;;9.80;87.75
77092;BME280;66032;48.252;11.638;2023-04-24T03:48:09;95081.81;;;9.80;87.77
77092;BME280;66032;48.252;11.638;2023-04-24T03:50:37;95082.19;;;9.77;88.05
77092;BME280;66032;48.252;11.638;2023-04-24T03:53:05;95082.19;;;9.77;88.01
77092;BME280;66032;48.252;11.638;2023-04-24T03:55:36;95084.66;;;9.78;88.11
77092;BME280;66032;48.252;11.638;2023-04-24T03:58:04;95071.75;;;9.75;88.38
77092;BME280;66032;48.252;11.638;2023-04-24T04:00:31;95080.34;;;9.77;88.47
77092;BME280;66032;48.252;11.638;2023-04-24T04:03:19;95065.47;;;9.76;88.30
77092;BME280;66032;48.252;11.638;2023-04-24T04:05:48;95070.75;;;9.76;88.44
77092;BME280;66032;48.252;11.638;2023-04-24T04:08:15;95067.28;;;9.76;88.39
77092;BME280;66032;48.252;11.638;2023-04-24T04:10:42;95064.47;;;9.77;88.49
77092;BME280;66032;48.252;11.638;2023-04-24T04:13:10;95067.94;;;9.78;88.54
77092;BME280;66032;48.252;11.638;2023-04-24T04:15:37;95069.59;;;9.79;88.60
77092;BME280;66032;48.252;11.638;2023-04-24T04:18:04;95068.56;;;9.80;88.41
77092;BME280;66032;48.252;11.638;2023-04-24T04:20:32;95063.81;;;9.75;88.48
77092;BME280;66032;48.252;11.638;2023-04-24T04:23:00;95062.34;;;9.73;88.86
77092;BME280;66032;48.252;11.638;2023-04-24T04:25:40;95069.28;;;9.74;88.53
77092;BME280;66032;48.252;11.638;2023-04-24T04:28:08;95069.94;;;9.76;88.39
77092;BME280;66032;48.252;11.638;2023-04-24T04:30:42;95072.75;;;9.74;88.62
77092;BME280;66032;48.252;11.638;2023-04-24T04:33:12;95068.28;;;9.75;88.41
77092;BME280;66032;48.252;11.638;2023-04-24T04:35:41;95069.94;;;9.76;88.46
77092;BME280;66032;48.252;11.638;2023-04-24T04:38:09;95080.53;;;9.76;88.41
77092;BME280;66032;48.252;11.638;2023-04-24T04:40:56;95082.19;;;9.77;88.21
77092;BME280;66032;48.252;11.638;2023-04-24T04:43:27;95079.38;;;9.78;88.31
77092;BME280;66032;48.252;11.638;2023-04-24T04:45:55;95084.47;;;9.80;87.99
77092;BME280;66032;48.252;11.638;2023-04-24T04:48:41;95089.94;;;9.78;87.92
77092;BME280;66032;48.252;11.638;2023-04-24T04:51:09;95084.81;;;9.77;87.76
77092;BME280;66032;48.252;11.638;2023-04-24T04:53:36;95082.63;;;9.80;87.24
77092;BME280;66032;48.252;11.638;2023-04-24T04:56:04;95090.06;;;9.85;87.03
77092;BME280;66032;48.252;11.638;2023-04-24T04:58:44;95088.88;;;9.87;86.68
77092;BME280;66032;48.252;11.638;2023-04-24T05:01:14;95097.31;;;9.91;86.86
77092;BME280;66032;48.252;11.638;2023-04-24T05:03:45;95099.28;;;9.89;86.74
77092;BME280;66032;48.252;11.638;2023-04-24T05:06:15;95092.00;;;9.91;86.67
77092;BME280;66032;48.252;11.638;2023-04-24T05:08:44;95100.44;;;9.95;86.65
77092;BME280;66032;48.252;11.638;2023-04-24T05:11:24;95099.63;;;9.94;86.65
77092;BME280;66032;48.252;11.638;2023-04-24T05:13:53;95097.44;;;9.98;86.43
77092;BME280;66032;48.252;11.638;2023-04-24T05:16:28;95100.56;;;10.01;86.22
77092;BME280;66032;48.252;11.638;2023-04-24T05:18:56;95112.44;;;10.05;86.49
77092;BME280;66032;48.252;11.638;2023-04-24T05:21:28;95104.97;;;10.09;86.47
77092;BME280;66032;48.252;11.638;2023-04-24T05:23:56;95115.69;;;10.15;86.12
77092;BME280;66032;48.252;11.638;2023-04-24T05:26:43;95108.25;;;10.19;85.99
77092;BME280;66032;48.252;11.638;2023-04-24T05:29:12;95115.97;;;10.29;85.76
77092;BME280;66032;48.252;11.638;2023-04-24T05:31:41;95104.50;;;10.36;85.10
77092;BME280;66032;48.252;11.638;2023-04-24T05:34:12;95108.91;;;10.44;84.83
77092;BME280;66032;48.252;11.638;2023-04-24T05:36:43;95111.94;;;10.55;84.29
77092;BME280;66032;48.252;11.638;2023-04-24T05:39:10;95111.06;;;10.63;83.92
77092;BME280;66032;48.252;11.638;2023-04-24T05:41:38;95109.53;;;10.69;83.49
77092;BME280;66032;48.252;11.638;2023-04-24T05:44:05;95109.81;;;10.74;83.09
77092;BME280;66032;48.252;11.638;2023-04-24T05:46:32;95109.63;;;10.75;82.50
77092;BME280;66032;48.252;11.638;2023-04-24T05:49:00;95112.63;;;10.72;82.90
77092;BME280;66032;48.252;11.638;2023-04-24T05:51:27;95116.25;;;10.79;82.06
77092;BME280;66032;48.252;11.638;2023-04-24T05:53:55;95111.56;;;10.81;82.16
77092;BME280;66032;48.252;11.638;2023-04-24T05:56:24;95119.81;;;10.86;82.14
77092;BME280;66032;48.252;11.638;2023-04-24T05:58:52;95118.75;;;10.95;81.36
77092;BME280;66032;48.252;11.638;2023-04-24T06:01:19;95122.66;;;10.99;80.86
77092;BME280;66032;48.252;11.638;2023-04-24T06:03:55;95129.72;;;11.07;80.73
77092;BME280;66032;48.252;11.638;2023-04-24T06:06:24;95123.88;;;11.12;80.67
77092;BME280;66032;48.252;11.638;2023-04-24T06:08:53;95128.47;;;11.18;80.40
77092;BME280;66032;48.252;11.638;2023-04-24T06:11:20;95121.97;;;11.20;80.50
77092;BME280;66032;48.252;11.638;2023-04-24T06:13:48;95128.19;;;11.27;80.37
77092;BME280;66032;48.252;11.638;2023-04-24T06:16:42;95124.63;;;11.35;79.81
77092;BME280;66032;48.252;11.638;2023-04-24T06:19:29;95121.97;;;11.50;79.74
77092;BME280;66032;48.252;11.638;2023-04-24T06:21:57;95122.34;;;11.61;79.34
77092;BME280;66032;48.252;11.638;2023-04-24T06:24:28;95122.69;;;11.73;78.70
77092;BME280;66032;48.252;11.638;2023-04-24T06:26:57;95121.59;;;11.82;77.86
77092;BME280;66032;48.252;11.638;2023-04-24T06:29:26;95121.50;;;11.90;77.86
77092;BME280;66032;48.252;11.638;2023-04-24T06:31:53;95128.91;;;12.09;77.16
77092;BME280;66032;48.252;11.638;2023-04-24T06:34:20;95130.31;;;12.27;76.68
77092;BME280;66032;48.252;11.638;2023-04-24T06:36:48;95123.56;;;12.45;76.50
77092;BME280;66032;48.252;11.638;2023-04-24T06:39:15;95127.53;;;12.56;75.89
77092;BME280;66032;48.252;11.638;2023-04-24T06:41:42;95130.56;;;12.74;75.18
77092;BME280;66032;48.252;11.638;2023-04-24T06:44:18;95131.59;;;12.95;73.44
77092;BME280;66032;48.252;11.638;2023-04-24T06:46:45;95127.97;;;13.02;72.89
77092;BME280;66032;48.252;11.638;2023-04-24T06:49:12;95138.09;;;12.92;73.93
77092;BME280;66032;48.252;11.638;2023-04-24T06:51:43;95135.91;;;13.23;72.36
77092;BME280;66032;48.252;11.638;2023-04-24T06:54:10;95135.59;;;13.12;73.25
77092;BME280;66032;48.252;11.638;2023-04-24T06:56:37;95142.84;;;13.46;72.11
77092;BME280;66032;48.252;11.638;2023-04-24T06:59:05;95144.41;;;13.68;70.72
77092;BME280;66032;48.252;11.638;2023-04-24T07:01:32;95137.38;;;13.95;70.11
77092;BME280;66032;48.252;11.638;2023-04-24T07:03:59;95147.28;;;13.73;69.91
77092;BME280;66032;48.252;11.638;2023-04-24T07:06:27;95148.34;;;14.20;70.00
77092;BME280;66032;48.252;11.638;2023-04-24T07:08:54;95146.59;;;14.40;68.12
77092;BME280;66032;48.252;11.638;2023-04-24T07:11:23;95143.44;;;14.97;65.93
77092;BME280;66032;48.252;11.638;2023-04-24T07:13:51;95143.41;;;15.17;65.00
77092;BME280;66032;48.252;11.638;2023-04-24T07:16:18;95131.88;;;16.33;62.60
77092;BME280;66032;48.252;11.638;2023-04-24T07:18:45;95134.44;;;17.41;59.31
77092;BME280;66032;48.252;11.638;2023-04-24T07:21:13;95140.81;;;18.44;55.68
77092;BME280;66032;48.252;11.638;2023-04-24T07:23:40;95129.97;;;18.99;53.53
77092;BME280;66032;48.252;11.638;2023-04-24T07:26:08;95143.63;;;19.09;53.61
77092;BME280;66032;48.252;11.638;2023-04-24T07:28:35;95142.78;;;19.39;52.90
77092;BME280;66032;48.252;11.638;2023-04-24T07:31:03;95144.63;;;18.85;52.31
77092;BME280;66032;48.252;11.638;2023-04-24T07:33:30;95145.41;;;18.74;53.51
77092;BME280;66032;48.252;11.638;2023-04-24T07:35:58;95154.84;;;18.76;53.61
77092;BME280;66032;48.252;11.638;2023-04-24T07:38:26;95149.38;;;18.53;53.87
77092;BME280;66032;48.252;11.638;2023-04-24T07:40:53;95157.94;;;18.62;53.63
77092;BME280;66032;48.252;11.638;2023-04-24T07:43:21;95163.81;;;18.70;53.13
77092;BME280;66032;48.252;11.638;2023-04-24T07:45:51;95155.88;;;18.64;53.11
77092;BME280;66032;48.252;11.638;2023-04-24T07:48:18;95158.94;;;18.49;52.29
77092;BME280;66032;48.252;11.638;2023-04-24T07:50:45;95163.63;;;18.35;52.48
77092;BME280;66032;48.252;11.638;2023-04-24T07:53:12;95161.09;;;18.04;53.85
77092;BME280;66032;48.252;11.638;2023-04-24T07:55:40;95159.00;;;17.88;53.99
77092;BME280;66032;48.252;11.638;2023-04-24T07:58:07;95184.13;;;17.68;54.88
77092;BME280;66032;48.252;11.638;2023-04-24T08:00:34;95178.84;;;17.62;54.75
77092;BME280;66032;48.252;11.638;2023-04-24T08:03:02;95172.41;;;17.13;54.83
77092;BME280;66032;48.252;11.638;2023-04-24T08:05:29;95174.94;;;16.70;57.72
77092;BME280;66032;48.252;11.638;2023-04-24T08:07:57;95176.44;;;16.53;56.86
77092;BME280;66032;48.252;11.638;2023-04-24T08:10:25;95181.13;;;16.57;57.69
77092;BME280;66032;48.252;11.638;2023-04-24T08:12:53;95175.19;;;16.55;58.64
77092;BME280;66032;48.252;11.638;2023-04-24T08:15:20;95176.06;;;16.43;58.10
77092;BME280;66032;48.252;11.638;2023-04-24T08:17:48;95188.75;;;16.60;58.18
77092;BME280;66032;48.252;11.638;2023-04-24T08:20:19;95180.47;;;16.17;58.56
77092;BME280;66032;48.252;11.638;2023-04-24T08:22:46;95191.97;;;16.31;58.46
77092;BME280;66032;48.252;11.638;2023-04-24T08:25:17;95186.75;;;16.43;58.42
77092;BME280;66032;48.252;11.638;2023-04-24T08:27:45;95195.44;;;16.38;57.49
77092;BME280;66032;48.252;11.638;2023-04-24T08:30:13;95194.28;;;16.14;57.94
77092;BME280;66032;48.252;11.638;2023-04-24T08:32:43;95199.69;;;15.75;58.41
77092;BME280;66032;48.252;11.638;2023-04-24T08:35:11;95204.06;;;15.56;59.35
77092;BME280;66032;48.252;11.638;2023-04-24T08:37:38;95207.31;;;15.38;60.46
77092;BME280;66032;48.252;11.638;2023-04-24T08:40:12;95213.25;;;15.27;60.57
77092;BME280;66032;48.252;11.638;2023-04-24T08:42:44;95219.78;;;14.98;61.34
77092;BME280;66032;48.252;11.638;2023-04-24T08:45:12;95203.34;;;14.27;63.33
77092;BME280;66032;48.252;11.638;2023-04-24T08:47:41;95220.69;;;14.17;62.39
77092;BME280;66032;48.252;11.638;2023-04-24T08:50:09;95229.50;;;14.11;62.12
77092;BME280;66032;48.252;11.638;2023-04-24T08:52:36;95225.94;;;13.97;61.66
77092;BME280;66032;48.252;11.638;2023-04-24T08:55:05;95230.22;;;13.98;61.56
77092;BME280;66032;48.252;11.638;2023-04-24T08:57:32;95227.06;;;14.16;60.82
77092;BME280;66032;48.252;11.638;2023-04-24T09:00:01;95230.13;;;14.13;58.87
77092;BME280;66032;48.252;11.638;2023-04-24T09:02:28;95239.38;;;14.17;60.50
77092;BME280;66032;48.252;11.638;2023-04-24T09:04:57;95243.13;;;14.29;61.00
77092;BME280;66032;48.252;11.638;2023-04-24T09:07:27;95250.66;;;14.53;59.91
77092;BME280;66032;48.252;11.638;2023-04-24T09:09:54;95245.03;;;14.89;58.85
77092;BME280;66032;48.252;11.638;2023-04-24T09:12:22;95250.59;;;15.07;58.61
77092;BME280;66032;48.252;11.638;2023-04-24T09:14:50;95242.22;;;15.17;57.75
77092;BME280;66032;48.252;11.638;2023-04-24T09:17:18;95236.03;;;14.97;55.28
77092;BME280;66032;48.252;11.638;2023-04-24T09:19:45;95242.78;;;14.99;55.68
77092;BME280;66032;48.252;11.638;2023-04-24T09:22:12;95243.97;;;14.84;56.40
77092;BME280;66032;48.252;11.638;2023-04-24T09:24:41;95245.81;;;14.83;55.74
77092;BME280;66032;48.252;11.638;2023-04-24T09:27:11;95241.94;;;14.92;56.49
77092;BME280;66032;48.252;11.638;2023-04-24T09:29:39;95242.63;;;15.21;55.38
77092;BME280;66032;48.252;11.638;2023-04-24T09:32:20;95246.38;;;15.66;53.94
77092;BME280;66032;48.252;11.638;2023-04-24T09:35:13;95241.81;;;15.99;54.66
77092;BME280;66032;48.252;11.638;2023-04-24T09:37:46;95250.94;;;16.49;52.84
77092;BME280;66032;48.252;11.638;2023-04-24T09:40:18;95257.06;;;16.76;52.21
77092;BME280;66032;48.252;11.638;2023-04-24T09:42:55;95251.78;;;17.01;50.97
77092;BME280;66032;48.252;11.638;2023-04-24T09:45:36;95245.84;;;17.30;49.25
77092;BME280;66032;48.252;11.638;2023-04-24T09:48:05;95249.16;;;17.26;49.28
77092;BME280;66032;48.252;11.638;2023-04-24T09:50:37;95243.00;;;17.57;48.71
77092;BME280;66032;48.252;11.638;2023-04-24T09:53:05;95243.97;;;16.99;49.29
77092;BME280;66032;48.252;11.638;2023-04-24T09:55:45;95241.22;;;17.13;50.03
77092;BME280;66032;48.252;11.638;2023-04-24T09:58:13;95244.00;;;17.24;48.46
77092;BME280;66032;48.252;11.638;2023-04-24T10:00:40;95242.38;;;17.55;49.29
77092;BME280;66032;48.252;11.638;2023-04-24T10:03:08;95232.72;;;17.78;47.33
77092;BME280;66032;48.252;11.638;2023-04-24T10:05:36;95239.28;;;17.82;49.57
77092;BME280;66032;48.252;11.638;2023-04-24T10:08:08;95228.69;;;17.38;48.83
77092;BME280;66032;48.252;11.638;2023-04-24T10:10:41;95234.72;;;17.83;48.09
77092;BME280;66032;48.252;11.638;2023-04-24T10:13:14;95233.59;;;17.97;48.74
77092;BME280;66032;48.252;11.638;2023-04-24T10:15:42;95236.50;;;18.57;47.20
77092;BME280;66032;48.252;11.638;2023-04-24T10:18:11;95229.59;;;18.79;45.93
77092;BME280;66032;48.252;11.638;2023-04-24T10:20:40;95232.22;;;19.16;45.41
77092;BME280;66032;48.252;11.638;2023-04-24T10:23:08;95237.44;;;19.41;44.08
77092;BME280;66032;48.252;11.638;2023-04-24T10:25:35;95245.22;;;19.49;45.37
77092;BME280;66032;48.252;11.638;2023-04-24T10:28:04;95232.41;;;19.74;43.63
77092;BME280;66032;48.252;11.638;2023-04-24T10:30:35;95237.31;;;19.06;44.91
77092;BME280;66032;48.252;11.638;2023-04-24T10:33:03;95234.91;;;19.16;45.28
77092;BME280;66032;48.252;11.638;2023-04-24T10:35:35;95236.19;;;19.13;44.41
77092;BME280;66032;48.252;11.638;2023-04-24T10:38:11;95228.91;;;19.44;45.41
77092;BME280;66032;48.252;11.638;2023-04-24T10:40:39;95238.13;;;19.66;44.77
77092;BME280;66032;48.252;11.638;2023-04-24T10:43:07;95229.47;;;19.64;45.68
77092;BME280;66032;48.252;11.638;2023-04-24T10:45:38;95233.28;;;19.26;45.91
77092;BME280;66032;48.252;11.638;2023-04-24T10:48:08;95234.25;;;19.32;45.29
77092;BME280;66032;48.252;11.638;2023-04-24T10:50:53;95232.72;;;19.54;45.47
77092;BME280;66032;48.252;11.638;2023-04-24T10:53:23;95228.88;;;19.85;43.78
77092;BME280;66032;48.252;11.638;2023-04-24T10:55:57;95225.38;;;19.73;45.04
77092;BME280;66032;48.252;11.638;2023-04-24T10:58:40;95246.44;;;20.11;43.90
77092;BME280;66032;48.252;11.638;2023-04-24T11:01:07;95250.28;;;18.79;50.66
77092;BME280;66032;48.252;11.638;2023-04-24T11:03:35;95267.53;;;18.28;51.93
77092;BME280;66032;48.252;11.638;2023-04-24T11:06:05;95269.09;;;17.68;54.09
77092;BME280;66032;48.252;11.638;2023-04-24T11:08:39;95273.78;;;17.10;56.81
77092;BME280;66032;48.252;11.638;2023-04-24T11:11:17;95259.34;;;16.66;57.42
77092;BME280;66032;48.252;11.638;2023-04-24T11:16:32;95256.91;;;16.51;57.52
77092;BME280;66032;48.252;11.638;2023-04-24T11:19:03;95265.75;;;16.52;58.63
77092;BME280;66032;48.252;11.638;2023-04-24T11:26:59;95270.75;;;17.37;55.64
77092;BME280;66032;48.252;11.638;2023-04-24T11:29:41;95274.47;;;17.68;54.66
77092;BME280;66032;48.252;11.638;2023-04-24T11:32:28;95278.16;;;17.73;53.72
77092;BME280;66032;48.252;11.638;2023-04-24T11:37:36;95275.69;;;18.40;52.13
77092;BME280;66032;48.252;11.638;2023-04-24T11:40:10;95280.44;;;18.38;51.25
77092;BME280;66032;48.252;11.638;2023-04-24T11:42:39;95289.13;;;18.15;50.09
77092;BME280;66032;48.252;11.638;2023-04-24T11:45:11;95282.00;;;18.45;50.61
77092;BME280;66032;48.252;11.638;2023-04-24T11:47:40;95281.84;;;18.65;48.99
77092;BME280;66032;48.252;11.638;2023-04-24T11:50:13;95290.25;;;18.07;50.24
77092;BME280;66032;48.252;11.638;2023-04-24T11:52:42;95279.16;;;18.22;48.14
77092;BME280;66032;48.252;11.638;2023-04-24T11:57:50;95275.03;;;18.63;47.06
77092;BME280;66032;48.252;11.638;2023-04-24T12:02:49;95265.69;;;19.31;46.23
77092;BME280;66032;48.252;11.638;2023-04-24T12:05:25;95261.16;;;18.84;46.92
77092;BME280;66032;48.252;11.638;2023-04-24T12:07:54;95248.13;;;18.69;46.22
77092;BME280;66032;48.252;11.638;2023-04-24T12:10:28;95239.09;;;18.64;47.05
77092;BME280;66032;48.252;11.638;2023-04-24T12:12:58;95253.38;;;18.21;48.43
77092;BME280;66032;48.252;11.638;2023-04-24T12:15:26;95250.22;;;18.06;48.53
77092;BME280;66032;48.252;11.638;2023-04-24T12:17:55;95242.03;;;18.19;48.27
77092;BME280;66032;48.252;11.638;2023-04-24T12:20:28;95253.22;;;18.16;48.79
77092;BME280;66032;48.252;11.638;2023-04-24T12:22:58;95241.00;;;18.38;47.85
77092;BME280;66032;48.252;11.638;2023-04-24T12:25:33;95236.09;;;18.53;47.90
77092;BME280;66032;48.252;11.638;2023-04-24T12:30:34;95240.69;;;18.28;46.39
77092;BME280;66032;48.252;11.638;2023-04-24T12:33:02;95234.22;;;18.36;45.59
77092;BME280;66032;48.252;11.638;2023-04-24T12:35:32;95237.50;;;18.56;44.66
77092;BME280;66032;48.252;11.638;2023-04-24T12:38:12;95239.63;;;18.72;43.79
77092;BME280;66032;48.252;11.638;2023-04-24T12:40:41;95247.94;;;18.46;43.71
77092;BME280;66032;48.252;11.638;2023-04-24T12:43:19;95230.19;;;18.45;43.13
77092;BME280;66032;48.252;11.638;2023-04-24T12:45:48;95233.94;;;18.62;43.33
77092;BME280;66032;48.252;11.638;2023-04-24T12:48:15;95227.44;;;18.88;43.93
77092;BME280;66032;48.252;11.638;2023-04-24T12:50:43;95229.91;;;18.89;42.72
77092;BME280;66032;48.252;11.638;2023-04-24T12:53:14;95227.78;;;18.91;43.15
77092;BME280;66032;48.252;11.638;2023-04-24T12:55:42;95238.69;;;18.97;42.78
77092;BME280;66032;48.252;11.638;2023-04-24T12:58:09;95250.56;;;19.19;43.51
77092;BME280;66032;48.252;11.638;2023-04-24T13:00:38;95257.34;;;19.21;42.54
77092;BME280;66032;48.252;11.638;2023-04-24T13:03:06;95254.16;;;19.13;41.12
77092;BME280;66032;48.252;11.638;2023-04-24T13:05:33;95243.22;;;19.26;40.61
77092;BME280;66032;48.252;11.638;2023-04-24T13:08:01;95248.91;;;19.18;41.12
77092;BME280;66032;48.252;11.638;2023-04-24T13:10:28;95251.19;;;19.03;41.19
77092;BME280;66032;48.252;11.638;2023-04-24T13:12:55;95256.47;;;18.79;41.24
77092;BME280;66032;48.252;11.638;2023-04-24T13:15:23;95256.16;;;18.87;41.81
77092;BME280;66032;48.252;11.638;2023-04-24T13:17:51;95252.78;;;18.92;42.83
77092;BME280;66032;48.252;11.638;2023-04-24T13:20:19;95258.75;;;18.94;42.13
77092;BME280;66032;48.252;11.638;2023-04-24T13:22:46;95251.38;;;18.89;41.36